sensor_id;sensor_type;location;lat;lon;timestamp;P1;durP1;ratioP1;P2;durP2;ratioP2
41643;SDS011;44236;48.098;11.582;2024-03-23T00:54:22;4.43;;;1.55;;
41643;SDS011;44236;48.098;11.582;2024-03-23T00:56:47;3.72;;;1.50;;
41643;SDS011;44236;48.098;11.582;2024-03-23T00:59:13;2.53;;;1.30;;
41643;SDS011;44236;48.098;11.582;2024-03-23T01:01:38;2.72;;;1.40;;
41643;SDS011;44236;48.098;11.582;2024-03-23T01:04:04;2.13;;;1.23;;
41643;SDS011;44236;48.098;11.582;2024-03-23T01:06:30;4.93;;;1.52;;
41643;SDS011;44236;48.098;11.582;2024-03-23T01:08:55;4.32;;;2.15;;
41643;SDS011;44236;48.098;11.582;2024-03-23T01:11:21;2.55;;;1.48;;
41643;SDS011;44236;48.098;11.582;2024-03-23T01:13:46;4.15;;;1.60;;
41643;SDS011;44236;48.098;11.582;2024-03-23T01:16:12;3.75;;;1.70;;
41643;SDS011;44236;48.098;11.582;2024-03-23T01:18:38;3.47;;;1.50;;
41643;SDS011;44236;48.098;11.582;2024-03-23T01:21:03;2.80;;;1.40;;
41643;SDS011;44236;48.098;11.582;2024-03-23T01:23:29;6.32;;;1.45;;
41643;SDS011;44236;48.098;11.582;2024-03-23T01:25:54;5.05;;;1.40;;
41643;SDS011;44236;48.098;11.582;2024-03-23T01:28:20;2.80;;;1.58;;
41643;SDS011;44236;48.098;11.582;2024-03-23T01:30:46;2.70;;;1.50;;
41643;SDS011;44236;48.098;11.582;2024-03-23T01:33:12;11.15;;;1.52;;
41643;SDS011;44236;48.098;11.582;2024-03-23T01:35:38;2.65;;;1.50;;
41643;SDS011;44236;48.098;11.582;2024-03-23T01:38:03;4.18;;;1.85;;
41643;SDS011;44236;48.098;11.582;2024-03-23T01:40:29;2.83;;;1.40;;
41643;SDS011;44236;48.098;11.582;2024-03-23T01:42:57;2.40;;;1.40;;
41643;SDS011;44236;48.098;11.582;2024-03-23T01:45:26;2.08;;;1.25;;
41643;SDS011;44236;48.098;11.582;2024-03-23T01:47:52;4.03;;;1.50;;
41643;SDS011;44236;48.098;11.582;2024-03-23T01:50:18;2.67;;;1.27;;
41643;SDS011;44236;48.098;11.582;2024-03-23T01:52:48;2.10;;;1.25;;
41643;SDS011;44236;48.098;11.582;2024-03-23T01:55:14;3.63;;;1.38;;
41643;SDS011;44236;48.098;11.582;2024-03-23T01:57:40;2.80;;;1.55;;
41643;SDS011;44236;48.098;11.582;2024-03-23T02:00:05;5.50;;;1.67;;
41643;SDS011;44236;48.098;11.582;2024-03-23T02:02:32;6.15;;;1.50;;
41643;SDS011;44236;48.098;11.582;2024-03-23T02:04:57;2.20;;;1.20;;
41643;SDS011;44236;48.098;11.582;2024-03-23T02:07:24;2.88;;;1.60;;
41643;SDS011;44236;48.098;11.582;2024-03-23T02:09:50;2.33;;;1.27;;
41643;SDS011;44236;48.098;11.582;2024-03-23T02:12:17;3.05;;;1.58;;
41643;SDS011;44236;48.098;11.582;2024-03-23T02:14:43;3.00;;;1.48;;
41643;SDS011;44236;48.098;11.582;2024-03-23T02:17:09;2.92;;;1.50;;
41643;SDS011;44236;48.098;11.582;2024-03-23T02:19:34;3.33;;;1.67;;
41643;SDS011;44236;48.098;11.582;2024-03-23T02:22:00;2.35;;;1.25;;
41643;SDS011;44236;48.098;11.582;2024-03-23T02:24:26;2.30;;;1.10;;
41643;SDS011;44236;48.098;11.582;2024-03-23T02:26:51;2.97;;;1.40;;
41643;SDS011;44236;48.098;11.582;2024-03-23T02:29:17;3.25;;;1.48;;
41643;SDS011;44236;48.098;11.582;2024-03-23T02:31:44;3.63;;;2.33;;
41643;SDS011;44236;48.098;11.582;2024-03-23T02:34:10;2.33;;;1.35;;
41643;SDS011;44236;48.098;11.582;2024-03-23T02:36:35;2.70;;;1.73;;
41643;SDS011;44236;48.098;11.582;2024-03-23T02:39:01;2.55;;;1.48;;
41643;SDS011;44236;48.098;11.582;2024-03-23T02:41:27;2.13;;;1.23;;
41643;SDS011;44236;48.098;11.582;2024-03-23T02:43:52;4.10;;;1.27;;
41643;SDS011;44236;48.098;11.582;2024-03-23T02:46:18;2.38;;;1.30;;
41643;SDS011;44236;48.098;11.582;2024-03-23T02:48:43;3.35;;;1.60;;
41643;SDS011;44236;48.098;11.582;2024-03-23T02:51:09;3.15;;;1.30;;
41643;SDS011;44236;48.098;11.582;2024-03-23T02:53:35;2.67;;;1.40;;
41643;SDS011;44236;48.098;11.582;2024-03-23T02:56:01;2.08;;;1.15;;
41643;SDS011;44236;48.098;11.582;2024-03-23T02:58:26;2.67;;;1.40;;
41643;SDS011;44236;48.098;11.582;2024-03-23T03:00:52;2.95;;;1.55;;
41643;SDS011;44236;48.098;11.582;2024-03-23T03:03:18;2.15;;;1.20;;
41643;SDS011;44236;48.098;11.582;2024-03-23T03:05:43;1.90;;;1.05;;
41643;SDS011;44236;48.098;11.582;2024-03-23T03:08:09;3.95;;;1.65;;
41643;SDS011;44236;48.098;11.582;2024-03-23T03:10:34;3.13;;;1.58;;
41643;SDS011;44236;48.098;11.582;2024-03-23T03:13:01;4.85;;;1.73;;
41643;SDS011;44236;48.098;11.582;2024-03-23T03:15:27;2.47;;;1.30;;
41643;SDS011;44236;48.098;11.582;2024-03-23T03:17:53;3.50;;;1.15;;
41643;SDS011;44236;48.098;11.582;2024-03-23T03:20:19;2.72;;;1.45;;
41643;SDS011;44236;48.098;11.582;2024-03-23T03:22:46;3.25;;;1.17;;
41643;SDS011;44236;48.098;11.582;2024-03-23T03:25:12;3.58;;;1.20;;
41643;SDS011;44236;48.098;11.582;2024-03-23T03:27:38;1.60;;;1.00;;
41643;SDS011;44236;48.098;11.582;2024-03-23T03:30:03;2.53;;;1.38;;
41643;SDS011;44236;48.098;11.582;2024-03-23T03:32:31;2.97;;;1.20;;
41643;SDS011;44236;48.098;11.582;2024-03-23T03:34:57;3.08;;;1.30;;
41643;SDS011;44236;48.098;11.582;2024-03-23T03:37:23;2.25;;;1.30;;
41643;SDS011;44236;48.098;11.582;2024-03-23T03:39:49;2.25;;;1.00;;
41643;SDS011;44236;48.098;11.582;2024-03-23T03:42:15;1.98;;;1.20;;
41643;SDS011;44236;48.098;11.582;2024-03-23T03:44:40;2.42;;;1.27;;
41643;SDS011;44236;48.098;11.582;2024-03-23T03:47:06;1.48;;;0.98;;
41643;SDS011;44236;48.098;11.582;2024-03-23T03:49:32;2.95;;;1.42;;
41643;SDS011;44236;48.098;11.582;2024-03-23T03:51:58;3.85;;;1.27;;
41643;SDS011;44236;48.098;11.582;2024-03-23T03:54:23;3.70;;;1.50;;
41643;SDS011;44236;48.098;11.582;2024-03-23T03:56:49;1.95;;;1.08;;
41643;SDS011;44236;48.098;11.582;2024-03-23T03:59:15;3.00;;;1.35;;
41643;SDS011;44236;48.098;11.582;2024-03-23T04:01:41;3.20;;;1.50;;
41643;SDS011;44236;48.098;11.582;2024-03-23T04:04:06;2.83;;;1.60;;
41643;SDS011;44236;48.098;11.582;2024-03-23T04:06:32;1.98;;;1.10;;
41643;SDS011;44236;48.098;11.582;2024-03-23T04:08:58;2.53;;;1.33;;
41643;SDS011;44236;48.098;11.582;2024-03-23T04:11:24;1.92;;;1.20;;
41643;SDS011;44236;48.098;11.582;2024-03-23T04:13:49;2.63;;;1.20;;
41643;SDS011;44236;48.098;11.582;2024-03-23T04:16:25;2.75;;;1.33;;
41643;SDS011;44236;48.098;11.582;2024-03-23T04:18:54;2.20;;;1.30;;
41643;SDS011;44236;48.098;11.582;2024-03-23T04:21:21;4.82;;;1.40;;
41643;SDS011;44236;48.098;11.582;2024-03-23T04:23:48;3.42;;;1.20;;
41643;SDS011;44236;48.098;11.582;2024-03-23T04:26:13;2.83;;;1.27;;
41643;SDS011;44236;48.098;11.582;2024-03-23T04:28:40;3.80;;;1.20;;
41643;SDS011;44236;48.098;11.582;2024-03-23T04:31:05;2.78;;;1.10;;
41643;SDS011;44236;48.098;11.582;2024-03-23T04:33:31;2.58;;;1.55;;
41643;SDS011;44236;48.098;11.582;2024-03-23T04:35:56;2.90;;;1.60;;
41643;SDS011;44236;48.098;11.582;2024-03-23T04:38:22;3.17;;;1.42;;
41643;SDS011;44236;48.098;11.582;2024-03-23T04:40:57;2.42;;;1.30;;
41643;SDS011;44236;48.098;11.582;2024-03-23T04:43:24;1.95;;;1.10;;
41643;SDS011;44236;48.098;11.582;2024-03-23T04:45:50;2.92;;;1.25;;
41643;SDS011;44236;48.098;11.582;2024-03-23T04:48:16;2.25;;;1.15;;
41643;SDS011;44236;48.098;11.582;2024-03-23T04:50:44;2.20;;;0.93;;
41643;SDS011;44236;48.098;11.582;2024-03-23T04:53:10;1.85;;;1.10;;
41643;SDS011;44236;48.098;11.582;2024-03-23T04:55:35;1.77;;;1.10;;
41643;SDS011;44236;48.098;11.582;2024-03-23T04:58:01;2.20;;;1.30;;
41643;SDS011;44236;48.098;11.582;2024-03-23T05:00:26;3.13;;;1.48;;
41643;SDS011;44236;48.098;11.582;2024-03-23T05:02:52;2.83;;;1.10;;
41643;SDS011;44236;48.098;11.582;2024-03-23T05:05:18;1.83;;;0.90;;
41643;SDS011;44236;48.098;11.582;2024-03-23T05:07:43;2.40;;;1.15;;
41643;SDS011;44236;48.098;11.582;2024-03-23T05:10:09;2.15;;;1.30;;
41643;SDS011;44236;48.098;11.582;2024-03-23T05:12:36;1.75;;;1.00;;
41643;SDS011;44236;48.098;11.582;2024-03-23T05:15:03;2.17;;;1.00;;
41643;SDS011;44236;48.098;11.582;2024-03-23T05:17:30;2.10;;;1.17;;
41643;SDS011;44236;48.098;11.582;2024-03-23T05:19:56;1.40;;;0.88;;
41643;SDS011;44236;48.098;11.582;2024-03-23T05:22:22;1.38;;;0.80;;
41643;SDS011;44236;48.098;11.582;2024-03-23T05:24:47;2.08;;;1.20;;
41643;SDS011;44236;48.098;11.582;2024-03-23T05:27:13;3.38;;;1.20;;
41643;SDS011;44236;48.098;11.582;2024-03-23T05:29:39;1.08;;;0.80;;
41643;SDS011;44236;48.098;11.582;2024-03-23T05:32:05;2.42;;;1.27;;
41643;SDS011;44236;48.098;11.582;2024-03-23T05:34:31;1.63;;;0.98;;
41643;SDS011;44236;48.098;11.582;2024-03-23T05:36:56;3.40;;;1.13;;
41643;SDS011;44236;48.098;11.582;2024-03-23T05:39:22;1.63;;;1.00;;
41643;SDS011;44236;48.098;11.582;2024-03-23T05:41:48;1.70;;;0.95;;
41643;SDS011;44236;48.098;11.582;2024-03-23T05:44:14;2.10;;;0.90;;
41643;SDS011;44236;48.098;11.582;2024-03-23T05:46:40;1.52;;;0.85;;
41643;SDS011;44236;48.098;11.582;2024-03-23T05:49:06;2.13;;;1.00;;
41643;SDS011;44236;48.098;11.582;2024-03-23T05:51:32;3.25;;;1.35;;
41643;SDS011;44236;48.098;11.582;2024-03-23T05:53:58;2.45;;;0.88;;
41643;SDS011;44236;48.098;11.582;2024-03-23T05:56:23;2.42;;;1.08;;
41643;SDS011;44236;48.098;11.582;2024-03-23T05:58:50;1.38;;;0.80;;
41643;SDS011;44236;48.098;11.582;2024-03-23T06:01:16;2.42;;;1.13;;
41643;SDS011;44236;48.098;11.582;2024-03-23T06:03:42;2.33;;;1.27;;
41643;SDS011;44236;48.098;11.582;2024-03-23T06:06:08;1.40;;;1.00;;
41643;SDS011;44236;48.098;11.582;2024-03-23T06:08:36;1.80;;;0.98;;
41643;SDS011;44236;48.098;11.582;2024-03-23T06:11:02;1.40;;;0.90;;
41643;SDS011;44236;48.098;11.582;2024-03-23T06:13:28;2.45;;;1.00;;
41643;SDS011;44236;48.098;11.582;2024-03-23T06:15:55;1.77;;;0.98;;
41643;SDS011;44236;48.098;11.582;2024-03-23T06:18:21;1.10;;;0.68;;
41643;SDS011;44236;48.098;11.582;2024-03-23T06:20:47;1.88;;;1.20;;
41643;SDS011;44236;48.098;11.582;2024-03-23T06:23:12;1.52;;;0.90;;
41643;SDS011;44236;48.098;11.582;2024-03-23T06:25:39;2.40;;;1.08;;
41643;SDS011;44236;48.098;11.582;2024-03-23T06:28:05;2.10;;;1.02;;
41643;SDS011;44236;48.098;11.582;2024-03-23T06:30:31;2.05;;;0.90;;
41643;SDS011;44236;48.098;11.582;2024-03-23T06:32:57;1.65;;;1.00;;
41643;SDS011;44236;48.098;11.582;2024-03-23T06:35:22;1.55;;;0.75;;
41643;SDS011;44236;48.098;11.582;2024-03-23T06:37:48;1.33;;;0.82;;
41643;SDS011;44236;48.098;11.582;2024-03-23T06:40:14;2.67;;;1.20;;
41643;SDS011;44236;48.098;11.582;2024-03-23T06:42:40;2.10;;;1.20;;
41643;SDS011;44236;48.098;11.582;2024-03-23T06:45:05;3.38;;;1.00;;
41643;SDS011;44236;48.098;11.582;2024-03-23T06:47:31;2.80;;;0.95;;
41643;SDS011;44236;48.098;11.582;2024-03-23T06:49:59;8.82;;;1.15;;
41643;SDS011;44236;48.098;11.582;2024-03-23T06:52:27;2.92;;;0.98;;
41643;SDS011;44236;48.098;11.582;2024-03-23T06:54:53;4.95;;;1.15;;
41643;SDS011;44236;48.098;11.582;2024-03-23T06:57:18;5.70;;;1.27;;
41643;SDS011;44236;48.098;11.582;2024-03-23T06:59:44;4.90;;;1.00;;
41643;SDS011;44236;48.098;11.582;2024-03-23T07:02:09;4.20;;;1.05;;
41643;SDS011;44236;48.098;11.582;2024-03-23T07:04:35;4.47;;;1.00;;
41643;SDS011;44236;48.098;11.582;2024-03-23T07:07:02;3.00;;;1.05;;
41643;SDS011;44236;48.098;11.582;2024-03-23T07:09:28;18.20;;;2.15;;
41643;SDS011;44236;48.098;11.582;2024-03-23T07:11:54;3.53;;;1.52;;
41643;SDS011;44236;48.098;11.582;2024-03-23T07:14:21;1.35;;;0.80;;
41643;SDS011;44236;48.098;11.582;2024-03-23T07:16:47;3.10;;;1.02;;
41643;SDS011;44236;48.098;11.582;2024-03-23T07:19:14;3.38;;;1.10;;
41643;SDS011;44236;48.098;11.582;2024-03-23T07:21:41;1.77;;;0.77;;
41643;SDS011;44236;48.098;11.582;2024-03-23T07:24:07;2.45;;;1.15;;
41643;SDS011;44236;48.098;11.582;2024-03-23T07:26:33;3.72;;;1.20;;
41643;SDS011;44236;48.098;11.582;2024-03-23T07:28:58;1.90;;;0.85;;
41643;SDS011;44236;48.098;11.582;2024-03-23T07:31:24;3.63;;;1.15;;
41643;SDS011;44236;48.098;11.582;2024-03-23T07:33:50;1.83;;;0.90;;
41643;SDS011;44236;48.098;11.582;2024-03-23T07:36:15;2.15;;;0.98;;
41643;SDS011;44236;48.098;11.582;2024-03-23T07:38:41;3.22;;;0.90;;
41643;SDS011;44236;48.098;11.582;2024-03-23T07:41:10;2.40;;;1.10;;
41643;SDS011;44236;48.098;11.582;2024-03-23T07:43:37;2.03;;;1.00;;
41643;SDS011;44236;48.098;11.582;2024-03-23T07:46:04;1.50;;;0.90;;
41643;SDS011;44236;48.098;11.582;2024-03-23T07:48:30;3.38;;;1.10;;
41643;SDS011;44236;48.098;11.582;2024-03-23T07:53:35;1.95;;;1.10;;
41643;SDS011;44236;48.098;11.582;2024-03-23T07:56:06;4.93;;;1.05;;
41643;SDS011;44236;48.098;11.582;2024-03-23T07:58:33;4.50;;;0.93;;
41643;SDS011;44236;48.098;11.582;2024-03-23T08:01:06;4.13;;;1.45;;
41643;SDS011;44236;48.098;11.582;2024-03-23T08:03:33;7.63;;;1.40;;
41643;SDS011;44236;48.098;11.582;2024-03-23T08:06:15;5.30;;;1.52;;
41643;SDS011;44236;48.098;11.582;2024-03-23T08:08:43;8.07;;;2.50;;
41643;SDS011;44236;48.098;11.582;2024-03-23T08:11:10;20.27;;;1.58;;
41643;SDS011;44236;48.098;11.582;2024-03-23T08:13:36;21.58;;;2.05;;
41643;SDS011;44236;48.098;11.582;2024-03-23T08:16:04;12.35;;;1.80;;
41643;SDS011;44236;48.098;11.582;2024-03-23T08:18:29;13.27;;;2.60;;
41643;SDS011;44236;48.098;11.582;2024-03-23T08:20:56;11.48;;;2.30;;
41643;SDS011;44236;48.098;11.582;2024-03-23T08:23:29;20.67;;;2.40;;
41643;SDS011;44236;48.098;11.582;2024-03-23T08:25:57;5.25;;;1.17;;
41643;SDS011;44236;48.098;11.582;2024-03-23T08:28:24;8.77;;;1.60;;
41643;SDS011;44236;48.098;11.582;2024-03-23T08:30:50;15.43;;;2.38;;
41643;SDS011;44236;48.098;11.582;2024-03-23T08:33:16;5.20;;;1.30;;
41643;SDS011;44236;48.098;11.582;2024-03-23T08:35:42;12.30;;;2.28;;
41643;SDS011;44236;48.098;11.582;2024-03-23T08:38:07;4.18;;;1.02;;
41643;SDS011;44236;48.098;11.582;2024-03-23T08:40:33;16.33;;;2.17;;
41643;SDS011;44236;48.098;11.582;2024-03-23T08:42:58;12.98;;;1.50;;
41643;SDS011;44236;48.098;11.582;2024-03-23T08:45:24;10.55;;;1.77;;
41643;SDS011;44236;48.098;11.582;2024-03-23T08:47:50;6.68;;;1.13;;
41643;SDS011;44236;48.098;11.582;2024-03-23T08:50:16;4.47;;;1.27;;
41643;SDS011;44236;48.098;11.582;2024-03-23T08:52:42;10.75;;;1.70;;
41643;SDS011;44236;48.098;11.582;2024-03-23T08:55:08;8.57;;;1.45;;
41643;SDS011;44236;48.098;11.582;2024-03-23T08:57:34;9.23;;;2.03;;
41643;SDS011;44236;48.098;11.582;2024-03-23T09:00:01;7.03;;;1.33;;
41643;SDS011;44236;48.098;11.582;2024-03-23T09:02:27;10.05;;;1.50;;
41643;SDS011;44236;48.098;11.582;2024-03-23T09:04:53;8.40;;;1.38;;
41643;SDS011;44236;48.098;11.582;2024-03-23T09:07:18;9.95;;;1.85;;
41643;SDS011;44236;48.098;11.582;2024-03-23T09:09:44;6.57;;;1.20;;
41643;SDS011;44236;48.098;11.582;2024-03-23T09:12:09;19.42;;;1.55;;
41643;SDS011;44236;48.098;11.582;2024-03-23T09:14:35;10.80;;;1.50;;
41643;SDS011;44236;48.098;11.582;2024-03-23T09:17:01;9.95;;;2.75;;
41643;SDS011;44236;48.098;11.582;2024-03-23T09:19:27;7.85;;;1.33;;
41643;SDS011;44236;48.098;11.582;2024-03-23T09:21:54;16.92;;;1.70;;
41643;SDS011;44236;48.098;11.582;2024-03-23T09:24:19;3.28;;;1.40;;
41643;SDS011;44236;48.098;11.582;2024-03-23T09:26:46;7.05;;;1.40;;
41643;SDS011;44236;48.098;11.582;2024-03-23T09:29:11;7.70;;;1.50;;
41643;SDS011;44236;48.098;11.582;2024-03-23T09:31:37;9.55;;;1.33;;
41643;SDS011;44236;48.098;11.582;2024-03-23T09:34:03;10.32;;;2.13;;
41643;SDS011;44236;48.098;11.582;2024-03-23T09:36:29;6.55;;;1.27;;
41643;SDS011;44236;48.098;11.582;2024-03-23T09:38:54;7.53;;;1.40;;
41643;SDS011;44236;48.098;11.582;2024-03-23T09:41:20;4.93;;;1.10;;
41643;SDS011;44236;48.098;11.582;2024-03-23T09:43:46;5.70;;;1.30;;
41643;SDS011;44236;48.098;11.582;2024-03-23T09:46:13;9.00;;;1.50;;
41643;SDS011;44236;48.098;11.582;2024-03-23T09:48:39;6.93;;;1.40;;
41643;SDS011;44236;48.098;11.582;2024-03-23T09:51:05;7.40;;;1.30;;
41643;SDS011;44236;48.098;11.582;2024-03-23T09:53:35;8.27;;;1.17;;
41643;SDS011;44236;48.098;11.582;2024-03-23T09:56:02;6.55;;;1.65;;
41643;SDS011;44236;48.098;11.582;2024-03-23T09:58:28;11.52;;;2.22;;
41643;SDS011;44236;48.098;11.582;2024-03-23T10:00:53;7.95;;;1.45;;
41643;SDS011;44236;48.098;11.582;2024-03-23T10:03:19;7.68;;;1.45;;
41643;SDS011;44236;48.098;11.582;2024-03-23T10:05:45;4.57;;;1.10;;
41643;SDS011;44236;48.098;11.582;2024-03-23T10:10:39;7.53;;;1.35;;
41643;SDS011;44236;48.098;11.582;2024-03-23T10:13:07;6.70;;;1.23;;
41643;SDS011;44236;48.098;11.582;2024-03-23T10:15:33;7.95;;;1.40;;
41643;SDS011;44236;48.098;11.582;2024-03-23T10:20:41;7.18;;;1.30;;
41643;SDS011;44236;48.098;11.582;2024-03-23T10:23:07;8.45;;;1.40;;
41643;SDS011;44236;48.098;11.582;2024-03-23T10:25:41;8.65;;;1.50;;
41643;SDS011;44236;48.098;11.582;2024-03-23T10:28:07;14.15;;;1.92;;
41643;SDS011;44236;48.098;11.582;2024-03-23T10:30:32;19.25;;;2.00;;
41643;SDS011;44236;48.098;11.582;2024-03-23T10:33:08;19.90;;;1.77;;
41643;SDS011;44236;48.098;11.582;2024-03-23T10:35:33;10.63;;;1.83;;
41643;SDS011;44236;48.098;11.582;2024-03-23T10:38:00;13.68;;;1.83;;
41643;SDS011;44236;48.098;11.582;2024-03-23T10:40:28;12.07;;;1.65;;
41643;SDS011;44236;48.098;11.582;2024-03-23T10:42:55;10.93;;;1.42;;
41643;SDS011;44236;48.098;11.582;2024-03-23T10:45:23;9.93;;;1.30;;
41643;SDS011;44236;48.098;11.582;2024-03-23T10:47:49;10.93;;;1.95;;
41643;SDS011;44236;48.098;11.582;2024-03-23T10:50:14;9.70;;;1.55;;
41643;SDS011;44236;48.098;11.582;2024-03-23T10:52:41;5.38;;;1.20;;
41643;SDS011;44236;48.098;11.582;2024-03-23T10:55:11;11.23;;;1.45;;
41643;SDS011;44236;48.098;11.582;2024-03-23T10:57:40;12.48;;;1.38;;
41643;SDS011;44236;48.098;11.582;2024-03-23T11:00:10;6.82;;;1.20;;
41643;SDS011;44236;48.098;11.582;2024-03-23T11:02:36;11.70;;;1.20;;
41643;SDS011;44236;48.098;11.582;2024-03-23T11:05:06;9.27;;;1.30;;
41643;SDS011;44236;48.098;11.582;2024-03-23T11:07:51;4.78;;;1.20;;
41643;SDS011;44236;48.098;11.582;2024-03-23T11:12:54;6.97;;;1.00;;
41643;SDS011;44236;48.098;11.582;2024-03-23T11:15:20;10.52;;;1.23;;
41643;SDS011;44236;48.098;11.582;2024-03-23T11:18:02;4.60;;;1.02;;
41643;SDS011;44236;48.098;11.582;2024-03-23T11:20:33;4.35;;;1.10;;
41643;SDS011;44236;48.098;11.582;2024-03-23T11:23:02;5.60;;;1.63;;
41643;SDS011;44236;48.098;11.582;2024-03-23T11:25:28;3.45;;;1.10;;
41643;SDS011;44236;48.098;11.582;2024-03-23T11:27:54;2.50;;;1.20;;
41643;SDS011;44236;48.098;11.582;2024-03-23T11:30:22;3.50;;;1.20;;
41643;SDS011;44236;48.098;11.582;2024-03-23T11:32:53;6.03;;;1.00;;
41643;SDS011;44236;48.098;11.582;2024-03-23T11:35:29;5.13;;;1.00;;
41643;SDS011;44236;48.098;11.582;2024-03-23T11:40:38;7.82;;;1.10;;
41643;SDS011;44236;48.098;11.582;2024-03-23T11:43:09;9.50;;;1.02;;
41643;SDS011;44236;48.098;11.582;2024-03-23T11:45:44;7.40;;;1.25;;
41643;SDS011;44236;48.098;11.582;2024-03-23T11:48:12;6.53;;;1.45;;
41643;SDS011;44236;48.098;11.582;2024-03-23T11:50:40;3.63;;;1.10;;
41643;SDS011;44236;48.098;11.582;2024-03-23T11:53:07;4.97;;;1.00;;
41643;SDS011;44236;48.098;11.582;2024-03-23T11:58:11;7.00;;;1.98;;
41643;SDS011;44236;48.098;11.582;2024-03-23T12:00:37;52.78;;;24.50;;
41643;SDS011;44236;48.098;11.582;2024-03-23T12:03:03;68.43;;;32.78;;
41643;SDS011;44236;48.098;11.582;2024-03-23T12:05:29;64.80;;;34.38;;
41643;SDS011;44236;48.098;11.582;2024-03-23T12:08:18;65.10;;;31.30;;
41643;SDS011;44236;48.098;11.582;2024-03-23T12:11:05;69.82;;;35.53;;
41643;SDS011;44236;48.098;11.582;2024-03-23T12:13:31;41.75;;;20.73;;
41643;SDS011;44236;48.098;11.582;2024-03-23T12:16:08;47.00;;;20.40;;
41643;SDS011;44236;48.098;11.582;2024-03-23T12:18:37;40.28;;;19.90;;
41643;SDS011;44236;48.098;11.582;2024-03-23T12:21:05;28.52;;;13.50;;
41643;SDS011;44236;48.098;11.582;2024-03-23T12:23:31;25.27;;;11.70;;
41643;SDS011;44236;48.098;11.582;2024-03-23T12:25:57;24.30;;;12.68;;
41643;SDS011;44236;48.098;11.582;2024-03-23T12:28:23;31.25;;;14.65;;
41643;SDS011;44236;48.098;11.582;2024-03-23T12:30:49;33.00;;;16.02;;
41643;SDS011;44236;48.098;11.582;2024-03-23T12:33:14;31.75;;;15.52;;
41643;SDS011;44236;48.098;11.582;2024-03-23T12:35:40;38.53;;;19.10;;
41643;SDS011;44236;48.098;11.582;2024-03-23T12:38:06;35.10;;;17.70;;
41643;SDS011;44236;48.098;11.582;2024-03-23T12:40:32;34.45;;;17.63;;
41643;SDS011;44236;48.098;11.582;2024-03-23T12:42:57;33.70;;;16.08;;
41643;SDS011;44236;48.098;11.582;2024-03-23T12:45:23;32.92;;;16.90;;
41643;SDS011;44236;48.098;11.582;2024-03-23T12:47:49;33.78;;;15.13;;
41643;SDS011;44236;48.098;11.582;2024-03-23T12:50:14;34.47;;;18.42;;
41643;SDS011;44236;48.098;11.582;2024-03-23T12:52:40;40.60;;;16.98;;
41643;SDS011;44236;48.098;11.582;2024-03-23T12:55:06;34.20;;;17.45;;
41643;SDS011;44236;48.098;11.582;2024-03-23T12:57:32;40.55;;;18.30;;
41643;SDS011;44236;48.098;11.582;2024-03-23T12:59:58;39.25;;;18.35;;
41643;SDS011;44236;48.098;11.582;2024-03-23T13:02:24;42.88;;;18.90;;
41643;SDS011;44236;48.098;11.582;2024-03-23T13:04:50;35.92;;;18.17;;
41643;SDS011;44236;48.098;11.582;2024-03-23T13:07:17;30.27;;;16.80;;
41643;SDS011;44236;48.098;11.582;2024-03-23T13:09:44;31.83;;;16.42;;
41643;SDS011;44236;48.098;11.582;2024-03-23T13:12:10;30.17;;;15.63;;
41643;SDS011;44236;48.098;11.582;2024-03-23T13:14:39;36.63;;;16.30;;
41643;SDS011;44236;48.098;11.582;2024-03-23T13:17:05;34.70;;;16.48;;
41643;SDS011;44236;48.098;11.582;2024-03-23T13:19:31;34.55;;;16.20;;
41643;SDS011;44236;48.098;11.582;2024-03-23T13:21:58;30.80;;;14.52;;
41643;SDS011;44236;48.098;11.582;2024-03-23T13:24:24;29.10;;;13.95;;
41643;SDS011;44236;48.098;11.582;2024-03-23T13:26:51;26.17;;;13.32;;
41643;SDS011;44236;48.098;11.582;2024-03-23T13:29:21;32.45;;;14.60;;
41643;SDS011;44236;48.098;11.582;2024-03-23T13:31:50;26.08;;;13.60;;
41643;SDS011;44236;48.098;11.582;2024-03-23T13:34:16;23.17;;;12.73;;
41643;SDS011;44236;48.098;11.582;2024-03-23T13:36:45;22.55;;;11.75;;
41643;SDS011;44236;48.098;11.582;2024-03-23T13:39:12;24.98;;;11.40;;
41643;SDS011;44236;48.098;11.582;2024-03-23T13:41:39;24.85;;;12.27;;
41643;SDS011;44236;48.098;11.582;2024-03-23T13:44:09;17.77;;;9.75;;
41643;SDS011;44236;48.098;11.582;2024-03-23T13:46:36;17.73;;;9.23;;
41643;SDS011;44236;48.098;11.582;2024-03-23T13:49:02;18.95;;;9.15;;
41643;SDS011;44236;48.098;11.582;2024-03-23T13:51:28;17.10;;;7.40;;
41643;SDS011;44236;48.098;11.582;2024-03-23T13:53:54;14.23;;;7.88;;
41643;SDS011;44236;48.098;11.582;2024-03-23T13:56:21;13.85;;;7.65;;
41643;SDS011;44236;48.098;11.582;2024-03-23T13:58:50;12.88;;;6.78;;
41643;SDS011;44236;48.098;11.582;2024-03-23T14:01:16;16.00;;;6.82;;
41643;SDS011;44236;48.098;11.582;2024-03-23T14:03:42;13.52;;;6.53;;
41643;SDS011;44236;48.098;11.582;2024-03-23T14:06:08;14.32;;;6.80;;
41643;SDS011;44236;48.098;11.582;2024-03-23T14:08:34;14.68;;;6.78;;
41643;SDS011;44236;48.098;11.582;2024-03-23T14:11:07;12.10;;;6.78;;
41643;SDS011;44236;48.098;11.582;2024-03-23T14:13:36;11.30;;;5.55;;
41643;SDS011;44236;48.098;11.582;2024-03-23T14:16:02;14.30;;;6.30;;
41643;SDS011;44236;48.098;11.582;2024-03-23T14:18:28;9.95;;;4.68;;
41643;SDS011;44236;48.098;11.582;2024-03-23T14:20:57;8.90;;;5.07;;
41643;SDS011;44236;48.098;11.582;2024-03-23T14:23:25;11.20;;;4.18;;
41643;SDS011;44236;48.098;11.582;2024-03-23T14:25:55;11.15;;;3.50;;
41643;SDS011;44236;48.098;11.582;2024-03-23T14:28:21;9.40;;;3.33;;
41643;SDS011;44236;48.098;11.582;2024-03-23T14:30:48;12.52;;;4.05;;
41643;SDS011;44236;48.098;11.582;2024-03-23T14:33:15;10.73;;;3.40;;
41643;SDS011;44236;48.098;11.582;2024-03-23T14:35:41;8.18;;;3.20;;
41643;SDS011;44236;48.098;11.582;2024-03-23T14:38:07;12.30;;;3.65;;
41643;SDS011;44236;48.098;11.582;2024-03-23T14:40:33;12.57;;;4.20;;
41643;SDS011;44236;48.098;11.582;2024-03-23T14:42:58;19.17;;;3.75;;
41643;SDS011;44236;48.098;11.582;2024-03-23T14:45:24;13.60;;;3.95;;
41643;SDS011;44236;48.098;11.582;2024-03-23T14:47:50;9.77;;;3.40;;
41643;SDS011;44236;48.098;11.582;2024-03-23T14:50:16;13.57;;;3.50;;
41643;SDS011;44236;48.098;11.582;2024-03-23T14:52:45;10.90;;;3.55;;
41643;SDS011;44236;48.098;11.582;2024-03-23T14:55:11;8.82;;;4.03;;
41643;SDS011;44236;48.098;11.582;2024-03-23T14:57:40;7.40;;;2.78;;
41643;SDS011;44236;48.098;11.582;2024-03-23T15:00:08;7.18;;;2.58;;
41643;SDS011;44236;48.098;11.582;2024-03-23T15:02:38;5.20;;;2.28;;
41643;SDS011;44236;48.098;11.582;2024-03-23T15:05:04;5.72;;;2.72;;
41643;SDS011;44236;48.098;11.582;2024-03-23T15:07:33;8.75;;;3.13;;
41643;SDS011;44236;48.098;11.582;2024-03-23T15:09:58;9.32;;;2.53;;
41643;SDS011;44236;48.098;11.582;2024-03-23T15:12:24;7.28;;;2.58;;
41643;SDS011;44236;48.098;11.582;2024-03-23T15:14:50;5.43;;;2.55;;
41643;SDS011;44236;48.098;11.582;2024-03-23T15:17:16;8.55;;;2.50;;
41643;SDS011;44236;48.098;11.582;2024-03-23T15:19:42;6.85;;;2.20;;
41643;SDS011;44236;48.098;11.582;2024-03-23T15:22:08;7.97;;;1.75;;
41643;SDS011;44236;48.098;11.582;2024-03-23T15:24:35;5.95;;;1.70;;
41643;SDS011;44236;48.098;11.582;2024-03-23T15:27:02;4.55;;;1.38;;
41643;SDS011;44236;48.098;11.582;2024-03-23T15:29:28;23.15;;;2.65;;
41643;SDS011;44236;48.098;11.582;2024-03-23T15:31:54;5.65;;;1.77;;
41643;SDS011;44236;48.098;11.582;2024-03-23T15:34:20;3.20;;;1.38;;